Terrell, Texas
Current Conditions -  °F | °C
As of 6:53 AM on Monday 22 Dec 2014 (Local Time) from KTRL Reporting Station
Overcast Overcast  
Wind Chill: 59°   Ceiling: 2000
Heat Index: 59°   Visibility: 10mi
Dew Point: 52°   Wind: 14mph
Humidity: 78%   Direction: 190°S
Pressure: 29.63"   Gusts: 26mph
Location:  32.74°N, 96.27°W
Report Text: KTRL 221253Z AUTO 19012G23KT 10SM OVC020 15/11 A2963 RMK AO2 SLP031 T01500111
Loading
Personal Weather Stations






























Interactive Weather Map New forecast layout! Learn more

10-Day Weather Forecast

Advertisements
Track Severe Weather on mobile